Hauptseite
METAR-TAF:

METAR-TAF

Flughäfen :

Flughafen Rimini

Rimini, Italien

Breite: 44-02N, Länge: 012-37E, Höhe: 12 m

Beobachtung

Neuester Wetterbericht von vor 49 Minuten, um 02:20 UTC
Wind 3 kt aus West/Südwest, variierte zwischen Südwest und West/Nordwest
Temperatur 23°C
Luftfeuchtigkeit 69%
Luftdruck 1014 hPa
Sichtweite 10 km oder mehr

METAR: LIPR 200220Z AUTO 25003KT 230V290 9999 NCD 23/17 Q1014

Zeit: 05:09 (03:09 UTC)

Prognose

Neuester Wetterbericht von vor 1 Stunde und 9 Minuten, um 02:00 UTC
Gültige Prognose vom 20 um 03 UTC bis 20 um 12 UTC
Wind 5 kt aus unterschiedlichen Richtungen
Sichtweite 10 km oder mehr
keine Wolken unter 1500 m und keine Kumulonimbus oder Gewitterwolken

TAF: LIPR 200200Z 2003/2012 VRB05KT CAVOK

Wetterbeobachtungen und Prognosen von mehr als 4000 Flughäfen (METAR und TAF Bericht).

Die verfügbaren Stationen werden durch gelbe und rote Markierungen auf der Karte dargestellt.

Führen Sie die Maus auf sie, um den Namen der Station zu sehen.

Darauf klicken, um die Beobachtung von Wetterbeobachtungen und Prognosen zu sehen.

Um die Karte zu ändern : klicken Sie auf den grünen Tasten mit einem schwarzen Kreuz Zum Vergrößern, auf den grünen Button mit einem Gedankenstrich zu verkleinern, oder auf die grünen Pfeile für benachbarte Karten.


METAR-TAF: